createdAt,value
2023-01-03T00:03:17.168Z,1.83
2023-01-03T00:08:08.895Z,2.10
2023-01-03T00:13:00.543Z,2.07
2023-01-03T00:17:52.864Z,2.17
2023-01-03T00:22:45.839Z,2.70
2023-01-03T00:27:37.396Z,1.97
2023-01-03T00:32:29.664Z,2.27
2023-01-03T00:37:21.296Z,2.40
2023-01-03T00:42:13.806Z,2.40
2023-01-03T00:47:05.372Z,2.10
2023-01-03T00:51:57.243Z,2.70
2023-01-03T00:56:50.094Z,2.10
2023-01-03T01:01:47.845Z,2.40
2023-01-03T01:06:42.907Z,2.37
2023-01-03T01:11:35.134Z,2.07
2023-01-03T01:16:32.168Z,2.00
2023-01-03T01:21:27.493Z,2.20
2023-01-03T01:26:22.376Z,1.80
2023-01-03T01:31:16.800Z,2.00
2023-01-03T01:36:10.596Z,1.93
2023-01-03T01:41:03.971Z,1.93
2023-01-03T01:45:55.672Z,1.90
2023-01-03T01:50:52.536Z,1.77
2023-01-03T01:55:49.925Z,1.67
2023-01-03T02:00:43.900Z,1.60
2023-01-03T02:05:38.342Z,1.80
2023-01-03T02:10:48.399Z,1.90
2023-01-03T02:15:56.214Z,2.10
2023-01-03T02:20:53.918Z,1.80
2023-01-03T02:26:13.538Z,1.90
2023-01-03T02:31:11.160Z,1.80
2023-01-03T02:36:18.137Z,1.70
2023-01-03T02:41:34.795Z,2.00
2023-01-03T02:46:35.385Z,1.80
2023-01-03T02:52:04.638Z,1.83
2023-01-03T02:57:04.373Z,2.00
2023-01-03T03:01:56.604Z,1.80
2023-01-03T03:07:03.364Z,1.40
2023-01-03T03:12:16.363Z,1.83
2023-01-03T03:17:13.490Z,1.80
2023-01-03T03:22:29.854Z,1.57
2023-01-03T03:27:43.644Z,1.83
2023-01-03T03:32:38.443Z,1.73
2023-01-03T03:37:34.211Z,2.30
2023-01-03T03:42:59.895Z,2.00
2023-01-03T03:47:59.240Z,1.93
2023-01-03T03:52:59.255Z,1.90
2023-01-03T03:57:56.037Z,2.00
2023-01-03T04:02:50.092Z,2.30
2023-01-03T04:07:41.992Z,1.83
2023-01-03T04:12:33.779Z,2.30
2023-01-03T04:17:25.304Z,2.40
2023-01-03T04:22:16.844Z,1.80
2023-01-03T04:27:08.636Z,1.90
2023-01-03T04:32:01.887Z,2.10
2023-01-03T04:36:53.536Z,1.77
2023-01-03T04:41:45.158Z,1.90
2023-01-03T04:46:39.293Z,1.87
2023-01-03T04:51:31.749Z,2.00
2023-01-03T04:56:42.707Z,1.80
2023-01-03T05:01:34.545Z,1.63
2023-01-03T05:06:29.222Z,1.80
2023-01-03T05:11:20.918Z,1.60
2023-01-03T05:16:14.452Z,1.57
2023-01-03T05:21:35.863Z,1.80
2023-01-03T05:26:27.459Z,2.03
2023-01-03T05:31:19.966Z,2.37
2023-01-03T05:36:12.002Z,2.43
2023-01-03T05:41:04.597Z,1.67
2023-01-03T05:45:56.177Z,2.17
2023-01-03T05:50:49.882Z,1.70
2023-01-03T05:55:41.618Z,2.20
2023-01-03T06:00:34.410Z,2.60
2023-01-03T06:05:26.229Z,2.70
2023-01-03T06:10:18.931Z,2.60
2023-01-03T06:15:10.693Z,2.33
2023-01-03T06:20:02.343Z,2.63
2023-01-03T06:24:53.914Z,2.90
2023-01-03T06:29:45.509Z,2.73
2023-01-03T06:34:37.945Z,2.63
2023-01-03T06:39:29.627Z,2.47
2023-01-03T06:44:21.158Z,2.67
2023-01-03T06:49:34.393Z,2.60
2023-01-03T06:54:29.144Z,3.03
2023-01-03T06:59:21.130Z,3.07
2023-01-03T07:04:13.362Z,2.90
2023-01-03T07:09:05.076Z,2.43
2023-01-03T07:13:59.728Z,2.37
2023-01-03T07:18:55.368Z,2.60
2023-01-03T07:23:47.303Z,2.23
2023-01-03T07:28:39.985Z,2.77
2023-01-03T07:33:32.272Z,3.10
2023-01-03T07:38:23.803Z,3.10
2023-01-03T07:43:34.935Z,2.90
2023-01-03T07:48:26.565Z,3.03
2023-01-03T07:53:18.237Z,2.90
2023-01-03T07:58:10.444Z,2.97
2023-01-03T08:03:02.172Z,3.00
2023-01-03T08:07:54.300Z,2.60
2023-01-03T08:13:04.473Z,2.77
2023-01-03T08:17:56.088Z,2.73
2023-01-03T08:22:48.484Z,2.90
2023-01-03T08:27:43.904Z,2.63
2023-01-03T08:32:38.945Z,2.50
2023-01-03T08:37:30.523Z,2.60
2023-01-03T08:42:23.582Z,2.80
2023-01-03T08:47:16.225Z,2.53
2023-01-03T08:52:08.815Z,2.10
2023-01-03T08:57:00.612Z,3.00
2023-01-03T09:01:53.043Z,2.57
2023-01-03T09:06:44.797Z,2.70
2023-01-03T09:11:36.506Z,2.30
2023-01-03T09:16:28.360Z,1.90
2023-01-03T09:21:20.857Z,2.20
2023-01-03T09:26:12.437Z,2.50
2023-01-03T09:31:05.642Z,1.97
2023-01-03T09:35:57.510Z,2.30
2023-01-03T09:41:02.904Z,2.10
2023-01-03T09:45:58.265Z,2.27
2023-01-03T09:51:17.126Z,2.07
2023-01-03T09:56:20.971Z,1.90
2023-01-03T10:01:50.288Z,2.40
2023-01-03T10:06:55.001Z,2.23
2023-01-03T10:11:59.125Z,2.20
2023-01-03T10:17:02.287Z,2.13
2023-01-03T10:22:03.521Z,2.00
2023-01-03T10:27:03.464Z,2.30
2023-01-03T10:32:09.366Z,1.90
2023-01-03T10:37:02.277Z,1.13
2023-01-03T10:41:58.466Z,1.03
2023-01-03T10:46:53.927Z,1.00
2023-01-03T10:52:02.821Z,1.00
2023-01-03T10:56:54.432Z,1.27
2023-01-03T11:02:18.926Z,0.80
2023-01-03T11:07:13.739Z,1.03
2023-01-03T11:12:17.773Z,1.40
2023-01-03T11:17:12.676Z,1.20
2023-01-03T11:22:06.988Z,1.30
2023-01-03T11:27:36.320Z,1.23
2023-01-03T11:33:00.148Z,1.10
2023-01-03T11:38:09.185Z,1.13
2023-01-03T11:43:35.696Z,1.00
2023-01-03T11:48:40.230Z,0.83
2023-01-03T11:53:49.777Z,1.10
2023-01-03T11:59:19.030Z,0.90
2023-01-03T12:04:42.359Z,1.20
2023-01-03T12:09:51.610Z,0.80
2023-01-03T12:14:56.955Z,0.53
2023-01-03T12:19:59.578Z,0.90
2023-01-03T12:25:16.378Z,0.90
2023-01-03T12:30:34.079Z,0.60
2023-01-03T12:35:28.700Z,0.90
2023-01-03T12:40:36.768Z,0.93
2023-01-03T12:45:48.636Z,1.00
2023-01-03T12:50:51.947Z,1.23
2023-01-03T12:55:51.730Z,0.90
2023-01-03T13:01:00.426Z,1.20
2023-01-03T13:06:02.119Z,0.87
2023-01-03T13:10:59.243Z,1.30
2023-01-03T13:15:50.909Z,0.73
2023-01-03T13:20:49.660Z,0.77
2023-01-03T13:25:42.588Z,0.80
2023-01-03T13:30:36.707Z,0.60
2023-01-03T13:35:37.065Z,0.77
2023-01-03T13:40:59.819Z,0.80
2023-01-03T13:45:42.756Z,0.60
2023-01-03T13:50:36.753Z,0.40
2023-01-03T13:55:54.492Z,0.70
2023-01-03T14:00:46.968Z,0.80
2023-01-03T14:05:56.843Z,0.90
2023-01-03T14:11:00.094Z,0.60
2023-01-03T14:16:13.467Z,0.90
2023-01-03T14:21:14.543Z,0.70
2023-01-03T14:26:15.807Z,1.30
2023-01-03T14:31:34.700Z,0.90
2023-01-03T14:36:27.491Z,1.10
2023-01-03T14:41:36.047Z,1.00
2023-01-03T14:46:30.069Z,0.80
2023-01-03T14:51:21.694Z,0.80
2023-01-03T14:56:13.707Z,0.80
2023-01-03T15:01:10.338Z,0.70
2023-01-03T15:06:02.332Z,0.90
2023-01-03T15:11:03.613Z,0.90
2023-01-03T15:16:01.166Z,0.87
2023-01-03T15:20:55.207Z,1.10
2023-01-03T15:25:46.983Z,0.80
2023-01-03T15:30:47.913Z,0.80
2023-01-03T15:35:42.338Z,1.10
2023-01-03T15:40:34.069Z,0.70
2023-01-03T15:45:28.679Z,0.93
2023-01-03T15:50:20.696Z,1.00
2023-01-03T15:55:13.907Z,1.00
2023-01-03T16:00:09.072Z,0.90
2023-01-03T16:05:00.887Z,1.10
2023-01-03T16:09:52.529Z,1.07
2023-01-03T16:14:48.567Z,1.50
2023-01-03T16:19:40.385Z,1.00
2023-01-03T16:24:34.910Z,1.10
2023-01-03T16:29:27.854Z,1.40
2023-01-03T16:34:26.385Z,0.80
2023-01-03T16:39:26.917Z,0.90
2023-01-03T16:44:18.479Z,1.07
2023-01-03T16:49:11.082Z,1.30
2023-01-03T16:54:07.464Z,1.20
2023-01-03T16:58:59.063Z,1.67
2023-01-03T17:03:50.795Z,1.30
2023-01-03T17:08:42.798Z,1.40
2023-01-03T17:13:40.962Z,1.10
2023-01-03T17:18:37.296Z,1.30
2023-01-03T17:23:32.296Z,1.53
2023-01-03T17:28:24.157Z,1.60
2023-01-03T17:33:15.741Z,1.33
2023-01-03T17:38:25.575Z,1.50
2023-01-03T17:43:23.752Z,1.90
2023-01-03T17:48:35.095Z,1.73
2023-01-03T17:53:26.981Z,1.53
2023-01-03T17:58:36.245Z,2.10
2023-01-03T18:03:29.037Z,1.67
2023-01-03T18:08:22.804Z,1.80
2023-01-03T18:13:26.962Z,1.70
2023-01-03T18:18:20.617Z,1.63
2023-01-03T18:23:38.192Z,1.73
2023-01-03T18:28:30.140Z,1.53
2023-01-03T18:33:22.559Z,1.40
2023-01-03T18:38:24.946Z,1.60
2023-01-03T18:43:19.153Z,1.50
2023-01-03T18:48:17.124Z,1.23
2023-01-03T18:53:15.775Z,1.50
2023-01-03T18:58:16.978Z,1.80
2023-01-03T19:03:22.217Z,1.70
2023-01-03T19:08:16.634Z,1.60
2023-01-03T19:13:21.374Z,1.83
2023-01-03T19:18:12.954Z,1.53
2023-01-03T19:23:06.332Z,1.40
2023-01-03T19:28:01.749Z,1.30
2023-01-03T19:32:56.153Z,1.27
2023-01-03T19:37:47.787Z,1.67
2023-01-03T19:42:48.062Z,1.20
2023-01-03T19:47:39.747Z,1.40
2023-01-03T19:52:31.297Z,1.43
2023-01-03T19:57:30.153Z,1.60
2023-01-03T20:02:36.282Z,2.20
2023-01-03T20:07:28.208Z,1.23
2023-01-03T20:12:26.072Z,1.40
2023-01-03T20:17:21.283Z,1.37
2023-01-03T20:22:37.277Z,1.90
2023-01-03T20:27:24.908Z,1.80
2023-01-03T20:32:16.515Z,1.63
2023-01-03T20:37:17.044Z,2.00
2023-01-03T20:42:24.734Z,1.50
2023-01-03T20:47:25.019Z,1.80
2023-01-03T20:52:17.702Z,2.00
2023-01-03T20:57:21.335Z,2.03
2023-01-03T21:02:13.160Z,2.00
2023-01-03T21:07:11.438Z,1.77
2023-01-03T21:12:03.649Z,1.30
2023-01-03T21:16:55.240Z,1.67
2023-01-03T21:21:49.165Z,1.50
2023-01-03T21:26:42.158Z,1.50
2023-01-03T21:31:35.538Z,2.00
2023-01-03T21:36:32.785Z,1.57
2023-01-03T21:41:28.272Z,1.67
2023-01-03T21:46:21.091Z,1.43
2023-01-03T21:51:14.209Z,1.80
2023-01-03T21:56:12.038Z,1.93
2023-01-03T22:01:16.282Z,1.80
2023-01-03T22:06:10.855Z,1.40
2023-01-03T22:11:03.318Z,1.67
2023-01-03T22:15:55.507Z,1.63
2023-01-03T22:20:47.270Z,1.73
2023-01-03T22:25:38.894Z,1.53
2023-01-03T22:30:30.520Z,1.70
2023-01-03T22:35:22.474Z,1.53
2023-01-03T22:40:17.681Z,1.73
2023-01-03T22:45:10.461Z,1.70
2023-01-03T22:50:07.590Z,1.53
2023-01-03T22:54:59.245Z,1.70
2023-01-03T22:59:50.960Z,1.30
2023-01-03T23:04:42.695Z,1.50
2023-01-03T23:09:34.341Z,1.77
2023-01-03T23:14:27.225Z,1.40
2023-01-03T23:19:21.625Z,1.40
2023-01-03T23:24:15.755Z,1.83
2023-01-03T23:29:09.158Z,1.50
2023-01-03T23:34:00.836Z,1.43
2023-01-03T23:38:54.116Z,1.10
2023-01-03T23:43:46.181Z,1.33
2023-01-03T23:48:37.888Z,1.40
2023-01-03T23:53:29.700Z,1.30
2023-01-03T23:58:22.203Z,1.43
